Time;durP1;ratioP1;P1;durP2;ratioP2;P2;SDS_P1;SDS_P2;PMS_P1;PMS_P2;Temp;Humidity;BMP_temperature;BMP_pressure;BME280_temperature;BME280_humidity;BME280_pressure;Samples;Min_cycle;Max_cycle;Signal;HPM_P1;HPM_P2
2021/03/27 00:02:22;;;;;;;3.40;1.00;;;12.70;85.00;;;;;;5093884;28;20191;-69
2021/03/27 00:04:57;;;;;;;3.63;1.05;;;12.70;85.20;;;;;;5093458;28;20314;-70
2021/03/27 00:07:26;;;;;;;4.28;1.23;;;12.90;85.90;;;;;;5095100;28;20633;-70
2021/03/27 00:09:57;;;;;;;3.70;1.10;;;12.90;86.20;;;;;;5095207;28;20173;-70
2021/03/27 00:12:48;;;;;;;3.70;1.47;;;13.10;86.70;;;;;;5094954;28;20173;-69
2021/03/27 00:15:16;;;;;;;3.90;0.83;;;13.20;87.40;;;;;;5094689;28;20515;-70
2021/03/27 00:17:52;;;;;;;4.85;1.58;;;13.20;87.80;;;;;;5094654;28;20454;-69
2021/03/27 00:20:20;;;;;;;4.10;1.30;;;13.20;88.40;;;;;;5094692;28;20171;-71
2021/03/27 00:23:05;;;;;;;5.28;1.58;;;13.20;89.00;;;;;;5094667;28;20430;-70
2021/03/27 00:25:39;;;;;;;4.00;0.93;;;13.10;89.40;;;;;;5094655;28;20207;-68
2021/03/27 00:28:08;;;;;;;4.30;1.25;;;13.10;90.00;;;;;;5094341;28;20426;-70
2021/03/27 00:30:48;;;;;;;4.80;1.37;;;13.00;90.50;;;;;;5094826;28;20258;-69
2021/03/27 00:33:15;;;;;;;3.40;0.90;;;13.00;90.50;;;;;;5094294;28;21035;-70
2021/03/27 00:35:52;;;;;;;4.60;1.13;;;13.00;90.70;;;;;;5094182;28;20199;-69
2021/03/27 00:38:21;;;;;;;3.50;0.93;;;12.90;90.80;;;;;;5094371;28;20187;-70
2021/03/27 00:40:51;;;;;;;3.78;1.15;;;12.90;90.90;;;;;;5094696;28;20180;-69
2021/03/27 00:43:40;;;;;;;4.40;1.05;;;12.90;90.90;;;;;;5094047;28;20223;-69
2021/03/27 00:46:08;;;;;;;4.32;1.02;;;12.90;91.10;;;;;;5093796;28;20195;-69
2021/03/27 00:48:36;;;;;;;4.13;0.80;;;12.90;91.40;;;;;;5094571;28;20160;-69
2021/03/27 00:51:11;;;;;;;3.92;0.93;;;12.90;91.90;;;;;;5093818;28;20183;-68
2021/03/27 00:53:43;;;;;;;3.88;0.88;;;12.80;92.10;;;;;;5094135;28;20202;-70
2021/03/27 00:56:38;;;;;;;4.18;1.17;;;12.70;92.30;;;;;;5092079;28;20758;-70
2021/03/27 00:59:07;;;;;;;3.70;1.17;;;12.70;92.80;;;;;;5093872;28;20189;-69
2021/03/27 01:01:40;;;;;;;3.97;1.15;;;12.70;93.00;;;;;;5091980;28;20266;-69
2021/03/27 01:04:09;;;;;;;3.95;0.75;;;12.60;93.30;;;;;;5093733;28;20210;-71
2021/03/27 01:06:50;;;;;;;3.40;0.60;;;12.50;93.30;;;;;;5125581;27;20305;-68
2021/03/27 01:09:18;;;;;;;4.68;1.08;;;12.50;93.50;;;;;;5094085;28;20168;-69
2021/03/27 01:11:58;;;;;;;4.05;1.42;;;12.40;93.60;;;;;;5093627;28;20179;-69
2021/03/27 01:14:28;;;;;;;3.40;0.50;;;12.40;93.90;;;;;;5093529;28;20249;-69
2021/03/27 01:16:57;;;;;;;5.45;1.20;;;12.40;94.10;;;;;;5093688;28;20540;-69
2021/03/27 01:19:33;;;;;;;4.13;0.88;;;12.30;94.30;;;;;;5093594;28;20520;-69
2021/03/27 01:22:04;;;;;;;4.10;0.98;;;12.30;94.50;;;;;;5093743;28;20258;-69
2021/03/27 01:24:30;;;;;;;4.35;0.50;;;12.20;94.80;;;;;;5093392;28;20192;-69
2021/03/27 01:27:00;;;;;;;4.25;1.00;;;12.20;95.30;;;;;;5093413;28;20204;-68
2021/03/27 01:29:35;;;;;;;3.50;0.80;;;12.10;95.90;;;;;;5093984;28;20557;-70
2021/03/27 01:32:04;;;;;;;4.38;1.13;;;12.10;96.20;;;;;;5093574;28;20175;-70
2021/03/27 01:34:40;;;;;;;3.70;0.82;;;12.10;96.10;;;;;;5093136;28;20176;-70
2021/03/27 01:37:12;;;;;;;4.13;1.23;;;12.10;96.80;;;;;;5093262;28;20196;-70
2021/03/27 01:40:07;;;;;;;3.40;0.50;;;12.00;97.40;;;;;;5093605;28;20172;-72
2021/03/27 01:42:56;;;;;;;4.43;1.27;;;12.00;98.00;;;;;;5073772;28;20191;-68
2021/03/27 01:45:39;;;;;;;3.70;0.80;;;11.90;98.60;;;;;;5092980;28;20195;-69
2021/03/27 01:48:24;;;;;;;3.80;1.35;;;11.90;99.10;;;;;;5093537;28;20172;-68
2021/03/27 01:51:02;;;;;;;3.88;0.82;;;11.90;99.60;;;;;;5093348;28;20176;-69
2021/03/27 01:53:47;;;;;;;4.03;0.93;;;11.80;99.90;;;;;;5093631;28;20180;-69
2021/03/27 01:56:34;;;;;;;3.50;0.50;;;11.80;99.90;;;;;;5092940;28;20200;-69
2021/03/27 01:59:14;;;;;;;4.03;1.23;;;11.80;99.90;;;;;;5093092;28;20256;-70
2021/03/27 02:02:05;;;;;;;3.90;1.10;;;11.70;99.90;;;;;;5093142;28;20171;-69
2021/03/27 02:04:39;;;;;;;3.47;0.75;;;11.60;99.90;;;;;;5093314;28;20211;-69
2021/03/27 02:07:20;;;;;;;4.30;0.98;;;11.50;99.90;;;;;;5093137;28;20253;-69
2021/03/27 02:10:23;;;;;;;3.60;0.60;;;11.40;99.90;;;;;;5093306;28;20217;-70
2021/03/27 02:12:52;;;;;;;3.70;0.63;;;11.30;99.90;;;;;;5081445;28;20168;-69
2021/03/27 02:15:21;;;;;;;3.60;0.60;;;11.20;99.90;;;;;;5096731;28;20188;-72
2021/03/27 02:17:52;;;;;;;4.40;0.82;;;11.10;99.90;;;;;;5096688;28;20255;-70
2021/03/27 02:20:52;;;;;;;4.28;1.00;;;11.10;99.90;;;;;;5097262;28;20208;-68
2021/03/27 02:23:46;;;;;;;4.00;1.15;;;11.00;99.90;;;;;;5077045;28;20605;-70
2021/03/27 02:26:31;;;;;;;3.65;0.70;;;11.00;99.90;;;;;;5087989;28;20203;-70
2021/03/27 02:29:02;;;;;;;3.78;0.75;;;10.90;99.90;;;;;;5096840;28;20172;-70
2021/03/27 02:31:38;;;;;;;4.03;1.00;;;10.90;99.90;;;;;;5097092;28;20164;-69
2021/03/27 02:34:15;;;;;;;5.15;1.10;;;10.90;99.90;;;;;;5096397;28;20183;-69
2021/03/27 02:36:46;;;;;;;3.70;0.60;;;10.90;99.90;;;;;;5096593;28;20683;-70
2021/03/27 02:39:23;;;;;;;4.43;1.30;;;10.90;99.90;;;;;;5096674;28;20229;-68
2021/03/27 02:42:16;;;;;;;6.03;1.23;;;10.90;99.90;;;;;;5097144;28;20176;-67
2021/03/27 02:44:43;;;;;;;3.80;0.82;;;10.80;99.90;;;;;;5095477;28;20302;-67
2021/03/27 02:47:17;;;;;;;3.72;0.70;;;10.70;99.90;;;;;;5096873;28;20546;-68
2021/03/27 02:49:54;;;;;;;4.30;1.33;;;10.70;99.90;;;;;;5096492;28;20175;-68
2021/03/27 02:52:57;;;;;;;4.05;0.77;;;10.60;99.90;;;;;;5076399;28;20252;-68
2021/03/27 02:55:34;;;;;;;3.67;0.80;;;10.60;99.90;;;;;;5063491;28;20302;-69
2021/03/27 02:58:14;;;;;;;9.05;1.23;;;10.60;99.90;;;;;;5082696;28;20184;-68
2021/03/27 03:00:48;;;;;;;4.63;1.33;;;10.60;99.90;;;;;;5096832;28;20549;-67
2021/03/27 03:03:24;;;;;;;4.40;1.30;;;10.50;99.90;;;;;;5096326;28;20686;-69
2021/03/27 03:05:55;;;;;;;4.00;0.50;;;10.50;99.90;;;;;;5096057;28;20187;-68
2021/03/27 03:08:39;;;;;;;3.97;0.63;;;10.50;99.90;;;;;;5095949;28;20168;-68
2021/03/27 03:11:25;;;;;;;4.60;0.63;;;10.50;99.90;;;;;;5096762;28;20156;-69
2021/03/27 03:14:15;;;;;;;4.03;0.57;;;10.50;99.90;;;;;;5095400;28;20187;-68
2021/03/27 03:16:51;;;;;;;4.32;0.73;;;10.60;99.90;;;;;;5096114;28;20536;-69
2021/03/27 03:19:46;;;;;;;5.25;0.93;;;10.60;99.90;;;;;;5095881;28;20179;-68
2021/03/27 03:22:14;;;;;;;4.00;0.70;;;10.60;99.90;;;;;;5095557;28;20232;-69
2021/03/27 03:24:48;;;;;;;4.47;0.90;;;10.60;99.90;;;;;;5094984;28;20681;-69
2021/03/27 03:27:18;;;;;;;3.90;0.57;;;10.60;99.90;;;;;;5095686;28;20192;-68
2021/03/27 03:30:11;;;;;;;4.93;0.80;;;10.60;99.90;;;;;;5095838;28;20660;-68
2021/03/27 03:33:21;;;;;;;4.57;0.88;;;10.60;99.90;;;;;;5075876;28;20251;-70
2021/03/27 03:36:09;;;;;;;4.00;0.73;;;10.70;99.90;;;;;;5017808;28;20252;-69
2021/03/27 03:38:49;;;;;;;3.90;0.60;;;10.70;99.90;;;;;;5033673;28;20170;-67
2021/03/27 03:41:51;;;;;;;4.10;0.77;;;10.70;99.90;;;;;;5033195;28;20297;-68
2021/03/27 03:44:44;;;;;;;3.80;0.40;;;10.70;99.90;;;;;;5013731;28;20562;-69
2021/03/27 03:47:23;;;;;;;3.80;0.45;;;10.70;99.90;;;;;;5029134;28;20615;-68
2021/03/27 03:50:30;;;;;;;4.05;0.52;;;10.70;99.90;;;;;;5033354;28;20192;-69
2021/03/27 03:52:59;;;;;;;3.75;0.55;;;10.70;99.90;;;;;;5013471;28;20190;-68
2021/03/27 03:55:33;;;;;;;4.30;0.70;;;10.60;99.90;;;;;;5013891;28;20274;-68
2021/03/27 03:58:21;;;;;;;3.78;0.60;;;10.60;99.90;;;;;;5033333;28;20268;-68
2021/03/27 04:01:13;;;;;;;4.85;1.25;;;10.50;99.90;;;;;;5033296;28;20192;-69
2021/03/27 04:03:54;;;;;;;4.65;0.50;;;10.30;99.90;;;;;;4998787;28;20587;-69
2021/03/27 04:06:24;;;;;;;3.90;0.63;;;10.20;99.90;;;;;;5058218;28;20196;-68
2021/03/27 04:09:11;;;;;;;3.75;0.30;;;10.10;99.90;;;;;;5095416;28;20168;-68
2021/03/27 04:11:49;;;;;;;3.80;0.40;;;10.00;99.90;;;;;;5095099;28;20230;-67
2021/03/27 04:14:27;;;;;;;3.80;0.40;;;9.90;99.90;;;;;;5094475;28;20176;-68
2021/03/27 04:17:06;;;;;;;3.90;0.40;;;9.90;99.90;;;;;;5094441;28;20602;-68
2021/03/27 04:19:40;;;;;;;3.90;0.55;;;9.80;99.90;;;;;;5095404;28;20266;-68
2021/03/27 04:22:33;;;;;;;4.20;0.70;;;9.70;99.90;;;;;;5094543;28;20211;-69
2021/03/27 04:25:22;;;;;;;4.10;0.60;;;9.60;99.90;;;;;;5094303;28;20681;-68
2021/03/27 04:28:02;;;;;;;4.00;0.40;;;9.60;99.90;;;;;;5094133;28;20186;-69
2021/03/27 04:31:05;;;;;;;4.00;0.50;;;9.50;99.90;;;;;;5094515;28;20518;-67
2021/03/27 04:33:52;;;;;;;3.97;0.50;;;9.40;99.90;;;;;;5094991;28;20168;-69
2021/03/27 04:36:42;;;;;;;4.00;0.40;;;9.30;99.90;;;;;;5093243;28;20267;-69
2021/03/27 04:39:13;;;;;;;4.00;0.40;;;9.30;99.90;;;;;;5094717;28;20203;-67
2021/03/27 04:42:14;;;;;;;4.07;0.40;;;9.20;99.90;;;;;;5092866;28;20168;-69
2021/03/27 04:45:04;;;;;;;4.00;0.50;;;9.10;99.90;;;;;;5079650;28;20253;-68
2021/03/27 04:47:38;;;;;;;3.90;0.40;;;9.10;99.90;;;;;;5094577;28;20224;-68
2021/03/27 04:50:37;;;;;;;4.00;0.43;;;9.00;99.90;;;;;;5094353;28;20625;-69
2021/03/27 04:53:25;;;;;;;3.95;0.35;;;8.90;99.90;;;;;;5094608;28;20254;-69
2021/03/27 04:56:37;;;;;;;4.00;0.50;;;8.80;99.90;;;;;;5073711;28;20180;-68
2021/03/27 04:59:38;;;;;;;4.10;0.50;;;8.80;99.90;;;;;;5019642;28;20183;-70
2021/03/27 05:02:14;;;;;;;4.10;0.63;;;8.70;99.90;;;;;;5063247;28;20232;-68
2021/03/27 05:05:24;;;;;;;3.97;0.50;;;8.70;99.90;;;;;;5085900;28;20545;-68
2021/03/27 05:07:56;;;;;;;4.00;0.40;;;8.60;99.90;;;;;;5011994;28;20179;-70
2021/03/27 05:10:33;;;;;;;3.97;0.40;;;8.60;99.90;;;;;;5012039;28;20181;-69
2021/03/27 05:13:17;;;;;;;4.00;0.55;;;8.50;99.90;;;;;;5012349;28;20542;-70
2021/03/27 05:15:49;;;;;;;3.90;0.30;;;8.40;99.90;;;;;;5011744;28;20195;-69
2021/03/27 05:18:51;;;;;;;4.03;0.50;;;8.40;99.90;;;;;;5011594;28;20223;-68
2021/03/27 05:21:24;;;;;;;3.97;0.40;;;8.30;99.90;;;;;;5012117;28;20663;-70
2021/03/27 05:24:12;;;;;;;4.00;0.30;;;8.30;99.90;;;;;;5011145;28;20227;-69
2021/03/27 05:26:58;;;;;;;4.20;0.60;;;8.30;99.90;;;;;;5011936;28;20272;-68
2021/03/27 05:29:50;;;;;;;4.00;0.40;;;8.20;99.90;;;;;;5011570;28;20235;-70
2021/03/27 05:32:47;;;;;;;3.97;0.40;;;8.20;99.90;;;;;;5012046;28;20221;-70
2021/03/27 05:35:31;;;;;;;3.95;0.40;;;8.20;99.90;;;;;;5011110;28;20241;-70
2021/03/27 05:38:19;;;;;;;4.00;0.40;;;8.20;99.90;;;;;;5034371;28;20187;-70
2021/03/27 05:41:14;;;;;;;4.00;0.50;;;8.20;99.90;;;;;;5106153;28;20273;-70
2021/03/27 05:44:02;;;;;;;4.00;0.63;;;8.20;99.90;;;;;;5071180;28;20589;-70
2021/03/27 05:46:27;;;;;;;4.20;0.50;;;8.10;99.90;;;;;;5093469;28;20732;-71
2021/03/27 05:49:02;;;;;;;3.97;0.40;;;8.10;99.90;;;;;;5093062;28;20252;-69
2021/03/27 05:52:05;;;;;;;3.97;0.40;;;8.00;99.90;;;;;;5093533;28;20415;-67
2021/03/27 05:54:48;;;;;;;4.03;0.55;;;8.00;99.90;;;;;;5082161;28;20248;-69
2021/03/27 05:57:35;;;;;;;4.00;0.47;;;7.90;99.90;;;;;;5093070;28;20204;-69
2021/03/27 06:00:26;;;;;;;4.00;0.50;;;7.90;99.90;;;;;;5092950;28;20177;-68
2021/03/27 06:03:22;;;;;;;4.07;0.40;;;7.90;99.90;;;;;;5093599;28;20168;-70
2021/03/27 06:06:02;;;;;;;3.97;0.40;;;7.90;99.90;;;;;;5092423;28;20203;-70
2021/03/27 06:09:02;;;;;;;4.00;0.40;;;7.90;99.90;;;;;;5093392;28;20299;-68
2021/03/27 06:11:30;;;;;;;3.95;0.40;;;7.90;99.90;;;;;;5073421;28;20212;-72
2021/03/27 06:14:11;;;;;;;4.15;0.40;;;7.80;99.90;;;;;;5074323;28;20247;-69
2021/03/27 06:17:09;;;;;;;4.00;0.40;;;7.80;99.90;;;;;;5093213;28;20283;-68
2021/03/27 06:20:05;;;;;;;3.85;0.40;;;7.80;99.90;;;;;;5093058;28;20208;-70
2021/03/27 06:23:10;;;;;;;6.05;0.60;;;7.90;99.90;;;;;;5072969;28;20168;-69
2021/03/27 06:25:46;;;;;;;3.80;0.40;;;7.90;99.90;;;;;;5087444;28;20228;-69
2021/03/27 06:28:42;;;;;;;4.00;0.60;;;7.90;99.90;;;;;;5093239;28;20174;-70
2021/03/27 06:31:35;;;;;;;3.90;0.40;;;8.00;99.90;;;;;;5072898;28;20182;-69
2021/03/27 06:34:38;;;;;;;3.88;0.40;;;8.10;99.90;;;;;;5075037;28;20199;-68
2021/03/27 06:37:28;;;;;;;3.90;0.40;;;8.10;99.90;;;;;;5093405;28;20201;-68
2021/03/27 06:40:03;;;;;;;6.65;1.75;;;8.10;99.90;;;;;;5092982;28;20178;-70
2021/03/27 06:43:04;;;;;;;3.72;0.40;;;8.20;99.90;;;;;;5092834;28;20165;-69
2021/03/27 06:45:39;;;;;;;4.35;0.60;;;8.20;99.90;;;;;;5092359;28;20201;-69
2021/03/27 06:48:26;;;;;;;3.80;0.40;;;8.10;99.90;;;;;;5093181;28;20166;-69
2021/03/27 06:51:34;;;;;;;6.88;0.73;;;8.10;99.90;;;;;;5093585;28;20256;-69
2021/03/27 06:54:27;;;;;;;3.80;0.40;;;8.10;99.90;;;;;;5091690;28;20660;-69
2021/03/27 06:57:05;;;;;;;3.72;0.40;;;8.10;99.90;;;;;;5092791;28;20196;-69
2021/03/27 07:00:10;;;;;;;4.00;0.63;;;8.20;99.90;;;;;;5093584;28;20172;-70
2021/03/27 07:02:54;;;;;;;3.90;0.38;;;8.70;99.90;;;;;;5096413;28;20172;-69
2021/03/27 07:05:42;;;;;;;3.80;0.30;;;9.50;99.90;;;;;;5095859;28;20196;-68
2021/03/27 07:08:46;;;;;;;4.20;0.55;;;10.30;99.90;;;;;;5090523;28;20233;-71
2021/03/27 07:11:33;;;;;;;3.93;0.60;;;11.30;99.60;;;;;;5088468;28;20188;-68
2021/03/27 07:14:30;;;;;;;4.20;0.80;;;12.50;96.90;;;;;;5095296;28;20463;-69
2021/03/27 07:17:17;;;;;;;3.80;0.40;;;13.60;94.50;;;;;;5025579;28;20437;-69
2021/03/27 07:20:18;;;;;;;3.70;0.33;;;14.20;92.00;;;;;;5096090;28;20405;-69
2021/03/27 07:23:02;;;;;;;3.80;0.60;;;13.90;90.40;;;;;;5084841;28;20823;-67
2021/03/27 07:25:36;;;;;;;3.63;0.40;;;13.60;89.90;;;;;;5095771;28;20936;-66
2021/03/27 07:28:39;;;;;;;4.30;0.40;;;13.40;88.10;;;;;;5093180;28;20774;-69
2021/03/27 07:31:34;;;;;;;4.10;0.53;;;13.20;87.10;;;;;;5095833;28;20454;-72
2021/03/27 07:34:21;;;;;;;3.70;0.50;;;12.80;86.20;;;;;;5095316;28;20502;-69
2021/03/27 07:37:13;;;;;;;3.70;0.40;;;12.40;87.10;;;;;;5095429;28;20445;-71
2021/03/27 07:39:45;;;;;;;3.70;0.40;;;12.10;88.30;;;;;;5095544;28;20408;-69
2021/03/27 07:42:20;;;;;;;3.60;0.30;;;11.80;88.30;;;;;;5095613;28;20397;-68
2021/03/27 07:45:10;;;;;;;3.60;0.47;;;12.00;89.00;;;;;;5094785;28;20948;-67
2021/03/27 07:48:02;;;;;;;3.57;0.30;;;12.40;89.10;;;;;;5092809;28;20455;-65
2021/03/27 07:50:49;;;;;;;3.50;0.40;;;13.10;88.10;;;;;;5059979;28;20426;-66
2021/03/27 07:53:23;;;;;;;3.47;0.30;;;13.70;82.90;;;;;;5084266;28;20797;-66
2021/03/27 07:56:31;;;;;;;3.50;0.40;;;13.80;81.30;;;;;;5092781;28;20826;-68
2021/03/27 07:59:18;;;;;;;3.40;0.30;;;14.00;79.40;;;;;;5094807;28;20904;-66
2021/03/27 08:02:08;;;;;;;3.43;0.43;;;13.90;78.10;;;;;;5095519;28;20398;-69
2021/03/27 08:05:11;;;;;;;3.60;0.53;;;14.80;76.50;;;;;;5094524;28;20503;-68
2021/03/27 08:07:48;;;;;;;3.60;0.50;;;15.60;73.10;;;;;;5095212;28;20573;-67
2021/03/27 08:10:45;;;;;;;6.47;2.40;;;16.60;71.20;;;;;;5094973;28;20790;-68
2021/03/27 08:13:30;;;;;;;3.70;0.60;;;17.80;68.20;;;;;;5056760;28;20460;-69
2021/03/27 08:16:14;;;;;;;3.30;0.30;;;17.90;65.30;;;;;;5094135;28;20479;-70
2021/03/27 08:19:14;;;;;;;3.77;0.33;;;18.00;64.20;;;;;;5094685;28;20437;-69
2021/03/27 08:22:17;;;;;;;3.60;0.57;;;17.80;60.80;;;;;;5094727;28;20935;-69
2021/03/27 08:24:49;;;;;;;3.60;0.53;;;17.20;63.10;;;;;;5092500;28;20784;-68
2021/03/27 08:27:37;;;;;;;3.57;0.50;;;17.00;61.60;;;;;;5090980;28;20465;-71
2021/03/27 08:30:24;;;;;;;4.07;0.60;;;16.20;63.50;;;;;;5093199;28;20464;-71
2021/03/27 08:33:27;;;;;;;3.00;0.30;;;16.20;64.70;;;;;;5092998;28;20410;-69
2021/03/27 08:35:56;;;;;;;3.00;0.37;;;16.30;65.80;;;;;;5090246;28;20454;-72
2021/03/27 08:38:42;;;;;;;3.10;0.50;;;17.00;66.90;;;;;;5093136;28;20775;-71
2021/03/27 08:41:11;;;;;;;3.13;0.43;;;17.80;62.90;;;;;;5088553;28;20511;-70
2021/03/27 08:43:39;;;;;;;3.00;0.47;;;18.20;60.70;;;;;;5091125;28;20414;-70
2021/03/27 08:46:20;;;;;;;3.00;0.40;;;19.10;60.40;;;;;;5092113;28;20466;-72
2021/03/27 08:49:26;;;;;;;3.00;0.50;;;19.90;58.10;;;;;;5092194;28;20402;-72
2021/03/27 08:51:58;;;;;;;3.97;0.50;;;20.20;56.80;;;;;;5058350;28;20410;-71
2021/03/27 08:54:45;;;;;;;2.70;0.40;;;20.50;55.10;;;;;;5090956;28;20965;-69
2021/03/27 08:57:32;;;;;;;2.80;0.50;;;20.40;52.40;;;;;;5093993;28;20944;-72
2021/03/27 09:00:04;;;;;;;2.70;0.47;;;20.50;51.60;;;;;;5094227;28;20402;-69
2021/03/27 09:02:32;;;;;;;2.80;0.43;;;21.10;51.70;;;;;;5093672;28;20430;-69
2021/03/27 09:05:07;;;;;;;3.27;0.60;;;21.60;51.00;;;;;;5093302;28;20737;-71
2021/03/27 09:08:06;;;;;;;2.50;0.33;;;22.10;49.10;;;;;;5092502;28;20972;-69
2021/03/27 09:10:54;;;;;;;2.60;0.60;;;21.60;47.80;;;;;;5093961;28;20489;-71
2021/03/27 09:13:23;;;;;;;2.93;0.70;;;21.90;48.80;;;;;;5092197;28;20425;-71
2021/03/27 09:16:10;;;;;;;2.50;0.50;;;22.00;48.40;;;;;;5091282;28;20796;-72
2021/03/27 09:19:08;;;;;;;2.53;0.47;;;22.10;47.00;;;;;;5086983;28;20995;-70
2021/03/27 09:22:12;;;;;;;2.43;0.40;;;21.80;47.00;;;;;;5090490;28;20812;-72
2021/03/27 09:24:46;;;;;;;2.40;0.40;;;21.80;46.90;;;;;;5093505;28;20377;-72
2021/03/27 09:27:49;;;;;;;2.60;0.40;;;21.80;45.60;;;;;;5093360;28;20797;-70
2021/03/27 09:30:18;;;;;;;2.40;0.50;;;21.60;45.10;;;;;;5093413;28;20410;-67
2021/03/27 09:33:31;;;;;;;2.80;0.60;;;21.60;44.20;;;;;;5093218;28;20410;-69
2021/03/27 09:36:26;;;;;;;2.30;0.37;;;21.80;45.20;;;;;;5050247;28;21087;-72
2021/03/27 09:39:18;;;;;;;2.60;0.50;;;22.10;45.00;;;;;;5021111;28;20395;-73
2021/03/27 09:41:58;;;;;;;2.30;0.40;;;22.20;44.70;;;;;;5074437;28;20453;-70
2021/03/27 09:44:36;;;;;;;2.50;0.40;;;22.90;44.70;;;;;;5091205;28;20417;-69
2021/03/27 09:47:27;;;;;;;2.30;0.40;;;23.60;44.10;;;;;;5093047;28;20465;-69
2021/03/27 09:49:55;;;;;;;2.70;0.53;;;24.40;42.60;;;;;;5093787;28;20481;-67
2021/03/27 09:52:24;;;;;;;2.40;0.50;;;24.20;40.70;;;;;;5091618;28;20396;-69
2021/03/27 09:55:21;;;;;;;2.40;0.40;;;24.00;42.30;;;;;;5089915;28;20430;-69
2021/03/27 09:58:05;;;;;;;2.80;0.50;;;23.50;42.30;;;;;;5093111;28;20418;-67
2021/03/27 10:01:00;;;;;;;2.40;0.50;;;23.10;43.00;;;;;;5077737;28;20906;-69
2021/03/27 10:03:48;;;;;;;2.20;0.40;;;23.40;42.80;;;;;;5072898;28;20957;-70
2021/03/27 10:06:31;;;;;;;2.20;0.40;;;23.00;42.50;;;;;;5077759;28;20405;-69
2021/03/27 10:09:28;;;;;;;2.10;0.33;;;23.20;42.40;;;;;;5093232;28;20468;-68
2021/03/27 10:12:18;;;;;;;2.50;0.50;;;22.70;40.80;;;;;;5083583;28;20431;-70
2021/03/27 10:15:18;;;;;;;2.30;0.50;;;22.40;41.50;;;;;;5072125;28;20419;-69
2021/03/27 10:17:50;;;;;;;5.30;0.77;;;22.60;42.00;;;;;;5089018;28;20802;-70
2021/03/27 10:20:40;;;;;;;2.20;0.50;;;21.60;40.80;;;;;;5093395;28;20401;-69
2021/03/27 10:23:14;;;;;;;2.40;0.60;;;20.70;41.50;;;;;;5092601;28;20422;-69
2021/03/27 10:25:43;;;;;;;2.30;0.40;;;19.70;43.40;;;;;;5092721;28;20525;-68
2021/03/27 10:28:28;;;;;;;4.10;1.07;;;19.00;44.00;;;;;;5092785;28;20449;-69
2021/03/27 10:31:01;;;;;;;2.20;0.30;;;18.30;44.90;;;;;;5091509;28;20915;-67
2021/03/27 10:33:47;;;;;;;2.70;0.70;;;17.20;44.90;;;;;;5071867;28;20781;-68
2021/03/27 10:36:28;;;;;;;2.30;0.50;;;16.10;45.50;;;;;;5079883;28;20442;-69
2021/03/27 10:39:27;;;;;;;2.20;0.30;;;15.40;46.50;;;;;;5096939;28;20396;-69
2021/03/27 10:42:24;;;;;;;2.60;0.60;;;14.90;47.30;;;;;;5096775;28;20411;-68
2021/03/27 10:45:11;;;;;;;2.50;0.30;;;14.40;48.60;;;;;;5096171;28;20457;-70
2021/03/27 10:47:38;;;;;;;3.13;0.50;;;14.10;49.10;;;;;;5096692;28;20455;-71
2021/03/27 10:50:26;;;;;;;2.30;0.30;;;14.10;49.90;;;;;;5096516;28;20445;-69
2021/03/27 10:53:15;;;;;;;2.37;0.47;;;13.90;50.30;;;;;;5096883;28;20449;-70
2021/03/27 10:56:05;;;;;;;2.30;0.30;;;13.90;50.20;;;;;;5094573;28;20413;-70
2021/03/27 10:58:52;;;;;;;2.30;0.40;;;14.30;50.60;;;;;;5096933;28;20409;-68
2021/03/27 11:01:39;;;;;;;2.97;0.93;;;15.20;50.30;;;;;;5094803;28;20505;-69
2021/03/27 11:04:36;;;;;;;2.60;0.30;;;15.70;48.80;;;;;;5096052;28;20454;-69
2021/03/27 11:07:20;;;;;;;2.40;0.50;;;15.70;48.50;;;;;;5096090;28;20437;-69
2021/03/27 11:10:04;;;;;;;2.47;0.40;;;16.00;48.50;;;;;;5094932;28;20415;-68
2021/03/27 11:12:58;;;;;;;2.30;0.30;;;16.60;49.10;;;;;;5096164;28;20908;-69
2021/03/27 11:16:15;;;;;;;2.40;0.50;;;17.10;48.50;;;;;;5095823;28;20444;-69
2021/03/27 11:18:59;;;;;;;2.50;0.50;;;16.80;47.60;;;;;;5073881;28;20441;-70
2021/03/27 11:21:37;;;;;;;2.30;0.40;;;16.30;47.10;;;;;;5095956;28;20452;-69
2021/03/27 11:24:34;;;;;;;2.77;0.80;;;15.90;48.00;;;;;;5095630;28;20512;-69
2021/03/27 11:27:00;;;;;;;2.30;0.30;;;15.40;48.30;;;;;;5095653;28;20435;-69
2021/03/27 11:30:04;;;;;;;2.70;0.57;;;15.00;49.20;;;;;;5094866;28;20758;-69
2021/03/27 11:32:54;;;;;;;2.30;0.30;;;14.80;49.40;;;;;;5091626;28;20179;-68
2021/03/27 11:35:29;;;;;;;2.37;0.40;;;14.50;50.90;;;;;;5095305;28;20429;-67
2021/03/27 11:38:25;;;;;;;2.30;0.40;;;14.30;50.80;;;;;;5075827;28;20405;-68
2021/03/27 11:41:26;;;;;;;5.40;0.73;;;14.10;50.40;;;;;;5080605;28;20413;-69
2021/03/27 11:44:21;;;;;;;2.70;0.60;;;14.00;51.10;;;;;;5080807;28;20460;-69
2021/03/27 11:46:52;;;;;;;2.23;0.40;;;14.00;50.70;;;;;;5094933;28;20428;-70
2021/03/27 11:49:44;;;;;;;2.37;0.37;;;14.10;51.50;;;;;;5081712;28;20523;-71
2021/03/27 11:52:35;;;;;;;2.40;0.53;;;14.10;49.70;;;;;;5096165;28;20432;-69
2021/03/27 11:55:25;;;;;;;2.30;0.30;;;14.10;50.80;;;;;;5093554;28;20416;-68
2021/03/27 11:57:59;;;;;;;2.30;0.30;;;14.10;49.60;;;;;;5095265;28;20443;-68
2021/03/27 12:03:58;;;;;;;2.30;0.40;;;14.20;50.40;;;;;;5095522;28;20526;-68
2021/03/27 12:06:52;;;;;;;2.30;0.30;;;14.40;49.80;;;;;;5094834;28;20528;-69
2021/03/27 12:09:28;;;;;;;2.30;0.40;;;14.40;50.50;;;;;;5091189;28;20533;-70
2021/03/27 12:12:00;;;;;;;2.30;0.40;;;14.60;50.40;;;;;;5075140;28;20503;-71
2021/03/27 12:15:13;;;;;;;2.50;0.60;;;14.80;49.50;;;;;;5075882;28;20807;-68
2021/03/27 12:18:05;;;;;;;2.30;0.40;;;14.90;49.90;;;;;;5022642;28;20528;-72
2021/03/27 12:20:34;;;;;;;2.37;0.40;;;15.00;50.30;;;;;;5094791;28;20448;-69
2021/03/27 12:23:19;;;;;;;2.27;0.30;;;15.00;50.40;;;;;;5095185;28;20404;-68
2021/03/27 12:25:54;;;;;;;2.40;0.47;;;15.10;49.70;;;;;;5093300;28;20804;-68
2021/03/27 12:28:25;;;;;;;5.43;0.93;;;15.20;49.40;;;;;;5093983;28;20416;-68
2021/03/27 12:31:02;;;;;;;3.17;1.47;;;15.10;50.30;;;;;;5094656;28;20421;-71
2021/03/27 12:33:52;;;;;;;2.30;0.30;;;15.10;50.60;;;;;;5093511;28;20775;-69
2021/03/27 12:36:38;;;;;;;2.40;0.40;;;15.10;49.80;;;;;;5094522;28;20440;-71
2021/03/27 12:39:09;;;;;;;3.17;0.60;;;14.90;49.80;;;;;;5094540;28;20417;-70
2021/03/27 12:41:48;;;;;;;2.50;0.60;;;14.80;50.90;;;;;;5094697;28;20391;-70
2021/03/27 12:44:28;;;;;;;4.00;0.50;;;14.90;51.30;;;;;;5092506;28;20541;-69
2021/03/27 12:47:22;;;;;;;2.30;0.30;;;14.90;49.50;;;;;;5094573;28;20561;-69
2021/03/27 12:50:13;;;;;;;2.80;0.87;;;14.70;49.40;;;;;;5082624;28;20848;-69
2021/03/27 12:53:06;;;;;;;2.50;0.40;;;14.40;49.80;;;;;;5093089;28;20412;-69
2021/03/27 12:55:56;;;;;;;2.30;0.40;;;14.40;50.40;;;;;;5093524;28;20441;-68
2021/03/27 12:58:27;;;;;;;2.30;0.30;;;14.60;50.90;;;;;;5092211;28;20930;-70
2021/03/27 13:01:01;;;;;;;2.30;0.40;;;14.60;51.00;;;;;;5092583;28;20414;-70
2021/03/27 13:03:45;;;;;;;2.30;0.30;;;14.70;50.30;;;;;;5093615;28;20551;-71
2021/03/27 13:06:47;;;;;;;2.97;0.43;;;14.60;50.10;;;;;;5091559;28;20493;-70
2021/03/27 13:09:13;;;;;;;2.40;0.83;;;14.50;49.90;;;;;;5092531;28;20414;-70
2021/03/27 13:11:45;;;;;;;2.30;0.30;;;14.30;49.20;;;;;;5094060;28;20401;-70
2021/03/27 13:14:29;;;;;;;2.80;0.70;;;14.10;49.40;;;;;;5092275;28;20171;-70
2021/03/27 13:17:02;;;;;;;2.30;0.30;;;14.10;50.20;;;;;;5092269;28;20969;-70
2021/03/27 13:19:56;;;;;;;2.30;0.30;;;14.00;50.80;;;;;;5093876;28;20427;-70
2021/03/27 13:22:30;;;;;;;2.37;0.40;;;14.10;49.70;;;;;;5094027;28;20451;-69
2021/03/27 13:25:17;;;;;;;2.30;0.40;;;14.10;50.30;;;;;;5093343;28;20798;-70
2021/03/27 13:27:47;;;;;;;2.30;0.30;;;14.10;50.70;;;;;;5093695;28;20817;-68
2021/03/27 13:30:24;;;;;;;2.40;0.40;;;14.10;49.70;;;;;;5093663;28;20433;-70
2021/03/27 13:33:06;;;;;;;2.40;0.50;;;14.00;50.20;;;;;;5093336;28;20507;-68
2021/03/27 13:35:52;;;;;;;2.40;0.30;;;14.00;49.20;;;;;;5093105;28;20813;-70
2021/03/27 13:38:32;;;;;;;2.50;0.40;;;13.80;50.30;;;;;;5093212;28;20451;-70
2021/03/27 13:41:04;;;;;;;2.50;0.50;;;13.70;50.00;;;;;;5092145;28;20420;-68
2021/03/27 13:43:37;;;;;;;2.40;0.40;;;13.60;50.40;;;;;;5092871;28;20443;-68
2021/03/27 13:46:03;;;;;;;2.40;0.30;;;13.50;50.70;;;;;;5091803;28;20463;-68
2021/03/27 13:48:28;;;;;;;2.40;0.30;;;13.40;51.70;;;;;;5092439;28;20516;-69
2021/03/27 13:51:18;;;;;;;2.40;0.40;;;13.30;51.40;;;;;;5092037;28;20182;-68
2021/03/27 13:53:52;;;;;;;2.40;0.30;;;13.30;51.80;;;;;;5092904;28;20491;-72
2021/03/27 13:56:38;;;;;;;2.40;0.30;;;13.40;51.70;;;;;;5092045;28;20798;-70
2021/03/27 13:59:24;;;;;;;2.60;0.57;;;13.60;52.70;;;;;;5092982;28;20584;-68
2021/03/27 14:02:23;;;;;;;2.40;0.40;;;13.70;51.60;;;;;;5092146;28;20486;-68
2021/03/27 14:05:16;;;;;;;2.40;0.30;;;13.80;51.70;;;;;;5092421;28;20478;-70
2021/03/27 14:07:51;;;;;;;2.50;0.40;;;13.80;50.80;;;;;;5092115;28;20928;-70
2021/03/27 14:10:49;;;;;;;2.50;0.50;;;13.70;50.60;;;;;;5077137;28;20751;-71
2021/03/27 14:13:23;;;;;;;3.23;0.70;;;13.60;51.30;;;;;;5080536;28;20430;-71
2021/03/27 14:16:16;;;;;;;2.50;0.33;;;13.50;51.70;;;;;;5097168;28;20498;-68
2021/03/27 14:19:09;;;;;;;2.50;0.30;;;13.40;51.60;;;;;;5097005;28;20438;-70